sensor_id;sensor_type;location;lat;lon;timestamp;pressure;altitude;pressure_sealevel;temperature;humidity
7662;BME280;30314;48.184;11.510;2022-08-25T00:00:16;96101.03;;;15.79;100.00
7662;BME280;30314;48.184;11.510;2022-08-25T00:02:44;96089.91;;;15.77;100.00
7662;BME280;30314;48.184;11.510;2022-08-25T00:05:23;96091.34;;;15.74;100.00
7662;BME280;30314;48.184;11.510;2022-08-25T00:07:53;96085.69;;;15.67;100.00
7662;BME280;30314;48.184;11.510;2022-08-25T00:10:22;96084.44;;;15.64;100.00
7662;BME280;30314;48.184;11.510;2022-08-25T00:12:50;96078.50;;;15.68;100.00
7662;BME280;30314;48.184;11.510;2022-08-25T00:15:18;96070.19;;;15.60;100.00
7662;BME280;30314;48.184;11.510;2022-08-25T00:17:47;96076.44;;;15.64;100.00
7662;BME280;30314;48.184;11.510;2022-08-25T00:20:15;96075.53;;;15.60;100.00
7662;BME280;30314;48.184;11.510;2022-08-25T00:22:42;96083.06;;;15.58;100.00
7662;BME280;30314;48.184;11.510;2022-08-25T00:25:10;96080.53;;;15.62;100.00
7662;BME280;30314;48.184;11.510;2022-08-25T00:27:40;96082.91;;;15.55;100.00
7662;BME280;30314;48.184;11.510;2022-08-25T00:30:11;96073.53;;;15.48;100.00
7662;BME280;30314;48.184;11.510;2022-08-25T00:32:42;96005.56;;;14.98;100.00
7662;BME280;30314;48.184;11.510;2022-08-25T00:35:20;96071.78;;;15.44;100.00
7662;BME280;30314;48.184;11.510;2022-08-25T00:37:48;96071.78;;;15.44;100.00
7662;BME280;30314;48.184;11.510;2022-08-25T00:40:16;95993.09;;;14.81;100.00
7662;BME280;30314;48.184;11.510;2022-08-25T00:42:45;96072.75;;;15.39;100.00
7662;BME280;30314;48.184;11.510;2022-08-25T00:45:14;96011.69;;;14.90;100.00
7662;BME280;30314;48.184;11.510;2022-08-25T00:47:42;96070.53;;;15.41;100.00
7662;BME280;30314;48.184;11.510;2022-08-25T00:50:11;96056.47;;;15.23;100.00
7662;BME280;30314;48.184;11.510;2022-08-25T00:52:42;96063.66;;;15.31;100.00
7662;BME280;30314;48.184;11.510;2022-08-25T00:55:13;96063.34;;;15.33;100.00
7662;BME280;30314;48.184;11.510;2022-08-25T00:57:47;96063.34;;;15.24;100.00
7662;BME280;30314;48.184;11.510;2022-08-25T01:00:21;96039.41;;;15.06;100.00
7662;BME280;30314;48.184;11.510;2022-08-25T01:02:50;96042.22;;;15.10;100.00
7662;BME280;30314;48.184;11.510;2022-08-25T01:05:18;96017.50;;;14.92;100.00
7662;BME280;30314;48.184;11.510;2022-08-25T01:07:46;96048.31;;;15.19;100.00
7662;BME280;30314;48.184;11.510;2022-08-25T01:10:18;96048.31;;;15.19;100.00
7662;BME280;30314;48.184;11.510;2022-08-25T01:12:48;96044.09;;;15.18;100.00
7662;BME280;30314;48.184;11.510;2022-08-25T01:15:16;96057.09;;;15.20;100.00
7662;BME280;30314;48.184;11.510;2022-08-25T01:17:47;96051.31;;;15.09;100.00
7662;BME280;30314;48.184;11.510;2022-08-25T01:20:15;96056.66;;;15.00;100.00
7662;BME280;30314;48.184;11.510;2022-08-25T01:22:47;96045.50;;;14.98;100.00
7662;BME280;30314;48.184;11.510;2022-08-25T01:25:26;96039.88;;;14.91;100.00
7662;BME280;30314;48.184;11.510;2022-08-25T01:27:56;96049.25;;;14.97;100.00
7662;BME280;30314;48.184;11.510;2022-08-25T01:30:25;96045.22;;;14.91;100.00
7662;BME280;30314;48.184;11.510;2022-08-25T01:32:53;96019.16;;;14.70;100.00
7662;BME280;30314;48.184;11.510;2022-08-25T01:35:20;96049.25;;;14.97;100.00
7662;BME280;30314;48.184;11.510;2022-08-25T01:37:50;96061.81;;;14.97;100.00
7662;BME280;30314;48.184;11.510;2022-08-25T01:40:18;96012.13;;;14.57;100.00
7662;BME280;30314;48.184;11.510;2022-08-25T01:42:53;96029.50;;;14.63;100.00
7662;BME280;30314;48.184;11.510;2022-08-25T01:45:24;96056.78;;;14.86;100.00
7662;BME280;30314;48.184;11.510;2022-08-25T01:47:54;96048.63;;;14.74;100.00
7662;BME280;30314;48.184;11.510;2022-08-25T01:50:22;96051.00;;;14.84;100.00
7662;BME280;30314;48.184;11.510;2022-08-25T01:52:55;96051.31;;;14.83;100.00
7662;BME280;30314;48.184;11.510;2022-08-25T01:55:25;96038.16;;;14.77;100.00
7662;BME280;30314;48.184;11.510;2022-08-25T01:57:53;96043.47;;;14.77;100.00
7662;BME280;30314;48.184;11.510;2022-08-25T02:00:22;96026.88;;;14.72;100.00
7662;BME280;30314;48.184;11.510;2022-08-25T02:02:50;96024.50;;;14.70;100.00
7662;BME280;30314;48.184;11.510;2022-08-25T02:05:21;96038.94;;;14.78;100.00
7662;BME280;30314;48.184;11.510;2022-08-25T02:07:50;96039.88;;;14.73;100.00
7662;BME280;30314;48.184;11.510;2022-08-25T02:10:19;96042.97;;;14.66;100.00
7662;BME280;30314;48.184;11.510;2022-08-25T02:12:48;96016.81;;;14.51;100.00
7662;BME280;30314;48.184;11.510;2022-08-25T02:15:20;96048.78;;;14.69;100.00
7662;BME280;30314;48.184;11.510;2022-08-25T02:17:47;96045.78;;;14.70;100.00
7662;BME280;30314;48.184;11.510;2022-08-25T02:20:15;96032.00;;;14.59;100.00
7662;BME280;30314;48.184;11.510;2022-08-25T02:22:43;96022.75;;;14.48;100.00
7662;BME280;30314;48.184;11.510;2022-08-25T02:25:24;96050.16;;;14.66;100.00
7662;BME280;30314;48.184;11.510;2022-08-25T02:27:52;96044.22;;;14.69;100.00
7662;BME280;30314;48.184;11.510;2022-08-25T02:30:19;96047.34;;;14.71;100.00
7662;BME280;30314;48.184;11.510;2022-08-25T02:32:47;96027.78;;;14.58;100.00
7662;BME280;30314;48.184;11.510;2022-08-25T02:35:16;96036.84;;;14.57;100.00
7662;BME280;30314;48.184;11.510;2022-08-25T02:37:43;96037.97;;;14.65;100.00
7662;BME280;30314;48.184;11.510;2022-08-25T02:40:11;96031.72;;;14.61;100.00
7662;BME280;30314;48.184;11.510;2022-08-25T02:42:41;96028.25;;;14.60;100.00
7662;BME280;30314;48.184;11.510;2022-08-25T02:45:09;96037.78;;;14.61;100.00
7662;BME280;30314;48.184;11.510;2022-08-25T02:47:37;95962.16;;;14.09;100.00
7662;BME280;30314;48.184;11.510;2022-08-25T02:50:05;96038.72;;;14.57;100.00
7662;BME280;30314;48.184;11.510;2022-08-25T02:52:34;96017.72;;;14.37;100.00
7662;BME280;30314;48.184;11.510;2022-08-25T02:55:02;96034.34;;;14.52;100.00
7662;BME280;30314;48.184;11.510;2022-08-25T02:57:31;96033.72;;;14.55;100.00
7662;BME280;30314;48.184;11.510;2022-08-25T03:00:00;96027.00;;;14.58;100.00
7662;BME280;30314;48.184;11.510;2022-08-25T03:02:28;96027.94;;;14.62;100.00
7662;BME280;30314;48.184;11.510;2022-08-25T03:04:56;95967.81;;;14.17;100.00
7662;BME280;30314;48.184;11.510;2022-08-25T03:07:24;96024.03;;;14.50;100.00
7662;BME280;30314;48.184;11.510;2022-08-25T03:09:53;95999.44;;;14.27;100.00
7662;BME280;30314;48.184;11.510;2022-08-25T03:12:21;96006.94;;;14.34;100.00
7662;BME280;30314;48.184;11.510;2022-08-25T03:14:48;96029.47;;;14.45;100.00
7662;BME280;30314;48.184;11.510;2022-08-25T03:17:17;96009.44;;;14.30;100.00
7662;BME280;30314;48.184;11.510;2022-08-25T03:19:45;96029.97;;;14.47;100.00
7662;BME280;30314;48.184;11.510;2022-08-25T03:22:13;96024.78;;;14.42;100.00
7662;BME280;30314;48.184;11.510;2022-08-25T03:24:40;96029.34;;;14.42;100.00
7662;BME280;30314;48.184;11.510;2022-08-25T03:27:09;96027.28;;;14.38;100.00
7662;BME280;30314;48.184;11.510;2022-08-25T03:29:37;96026.16;;;14.40;100.00
7662;BME280;30314;48.184;11.510;2022-08-25T03:32:05;96024.00;;;14.42;100.00
7662;BME280;30314;48.184;11.510;2022-08-25T03:34:34;96028.69;;;14.45;100.00
7662;BME280;30314;48.184;11.510;2022-08-25T03:37:02;96021.66;;;14.40;100.00
7662;BME280;30314;48.184;11.510;2022-08-25T03:39:30;96017.13;;;14.41;100.00
7662;BME280;30314;48.184;11.510;2022-08-25T03:41:58;96018.81;;;14.36;100.00
7662;BME280;30314;48.184;11.510;2022-08-25T03:44:26;96028.22;;;14.34;100.00
7662;BME280;30314;48.184;11.510;2022-08-25T03:46:53;95965.88;;;14.00;100.00
7662;BME280;30314;48.184;11.510;2022-08-25T03:49:22;96013.50;;;14.28;100.00
7662;BME280;30314;48.184;11.510;2022-08-25T03:51:52;95979.66;;;14.02;100.00
7662;BME280;30314;48.184;11.510;2022-08-25T03:54:23;95978.72;;;14.06;100.00
7662;BME280;30314;48.184;11.510;2022-08-25T03:56:52;96011.94;;;14.27;100.00
7662;BME280;30314;48.184;11.510;2022-08-25T03:59:20;96015.38;;;14.27;100.00
7662;BME280;30314;48.184;11.510;2022-08-25T04:01:48;96020.81;;;14.22;100.00
7662;BME280;30314;48.184;11.510;2022-08-25T04:04:21;96006.91;;;14.16;100.00
7662;BME280;30314;48.184;11.510;2022-08-25T04:06:48;96007.69;;;14.17;100.00
7662;BME280;30314;48.184;11.510;2022-08-25T04:09:17;95948.16;;;13.77;100.00
7662;BME280;30314;48.184;11.510;2022-08-25T04:11:45;96014.56;;;14.18;100.00
7662;BME280;30314;48.184;11.510;2022-08-25T04:14:19;96016.59;;;14.12;100.00
7662;BME280;30314;48.184;11.510;2022-08-25T04:16:47;96015.50;;;14.13;100.00
7662;BME280;30314;48.184;11.510;2022-08-25T04:19:15;96017.34;;;14.13;100.00
7662;BME280;30314;48.184;11.510;2022-08-25T04:21:43;96025.66;;;14.11;100.00
7662;BME280;30314;48.184;11.510;2022-08-25T04:24:12;96019.06;;;14.08;100.00
7662;BME280;30314;48.184;11.510;2022-08-25T04:26:43;96006.84;;;13.99;100.00
7662;BME280;30314;48.184;11.510;2022-08-25T04:29:12;96022.38;;;14.14;100.00
7662;BME280;30314;48.184;11.510;2022-08-25T04:31:42;95995.59;;;14.02;100.00
7662;BME280;30314;48.184;11.510;2022-08-25T04:34:14;96020.00;;;14.13;100.00
7662;BME280;30314;48.184;11.510;2022-08-25T04:36:57;95994.00;;;13.83;100.00
7662;BME280;30314;48.184;11.510;2022-08-25T04:39:25;96017.03;;;14.05;100.00
7662;BME280;30314;48.184;11.510;2022-08-25T04:41:54;96018.59;;;14.06;100.00
7662;BME280;30314;48.184;11.510;2022-08-25T04:44:21;96003.56;;;13.93;100.00
7662;BME280;30314;48.184;11.510;2022-08-25T04:46:49;96007.16;;;13.97;100.00
7662;BME280;30314;48.184;11.510;2022-08-25T04:49:17;96019.41;;;14.07;100.00
7662;BME280;30314;48.184;11.510;2022-08-25T04:51:45;96015.66;;;14.08;100.00
7662;BME280;30314;48.184;11.510;2022-08-25T04:54:15;96014.41;;;14.14;100.00
7662;BME280;30314;48.184;11.510;2022-08-25T04:56:47;95993.22;;;13.91;100.00
7662;BME280;30314;48.184;11.510;2022-08-25T04:59:21;96021.72;;;14.08;100.00
7662;BME280;30314;48.184;11.510;2022-08-25T05:01:58;95999.03;;;13.93;100.00
7662;BME280;30314;48.184;11.510;2022-08-25T05:04:28;96012.66;;;14.09;100.00
7662;BME280;30314;48.184;11.510;2022-08-25T05:06:57;96014.41;;;14.14;100.00
7662;BME280;30314;48.184;11.510;2022-08-25T05:09:25;96013.19;;;14.20;100.00
7662;BME280;30314;48.184;11.510;2022-08-25T05:11:53;96008.63;;;14.21;100.00
7662;BME280;30314;48.184;11.510;2022-08-25T05:14:24;96003.59;;;14.19;100.00
7662;BME280;30314;48.184;11.510;2022-08-25T05:16:52;96010.84;;;14.28;100.00
7662;BME280;30314;48.184;11.510;2022-08-25T05:19:20;96009.72;;;14.29;100.00
7662;BME280;30314;48.184;11.510;2022-08-25T05:21:49;96008.50;;;14.35;100.00
7662;BME280;30314;48.184;11.510;2022-08-25T05:24:17;95975.31;;;14.15;100.00
7662;BME280;30314;48.184;11.510;2022-08-25T05:26:45;95896.25;;;13.71;100.00
7662;BME280;30314;48.184;11.510;2022-08-25T05:29:13;96003.03;;;14.58;100.00
7662;BME280;30314;48.184;11.510;2022-08-25T05:31:42;95917.09;;;13.95;100.00
7662;BME280;30314;48.184;11.510;2022-08-25T05:34:16;96006.66;;;14.62;100.00
7662;BME280;30314;48.184;11.510;2022-08-25T05:36:45;95983.78;;;14.52;100.00
7662;BME280;30314;48.184;11.510;2022-08-25T05:39:12;95992.44;;;14.66;100.00
7662;BME280;30314;48.184;11.510;2022-08-25T05:41:40;95982.09;;;14.74;100.00
7662;BME280;30314;48.184;11.510;2022-08-25T05:44:08;95996.81;;;14.89;100.00
7662;BME280;30314;48.184;11.510;2022-08-25T05:46:38;95977.25;;;14.85;100.00
7662;BME280;30314;48.184;11.510;2022-08-25T05:49:07;96005.72;;;15.28;100.00
7662;BME280;30314;48.184;11.510;2022-08-25T05:51:35;96006.44;;;15.46;100.00
7662;BME280;30314;48.184;11.510;2022-08-25T05:54:03;95982.97;;;15.40;100.00
7662;BME280;30314;48.184;11.510;2022-08-25T05:56:31;96010.44;;;15.70;100.00
7662;BME280;30314;48.184;11.510;2022-08-25T05:58:59;96016.81;;;15.78;100.00
7662;BME280;30314;48.184;11.510;2022-08-25T06:01:31;95924.06;;;15.32;100.00
7662;BME280;30314;48.184;11.510;2022-08-25T06:04:18;96013.94;;;16.01;100.00
7662;BME280;30314;48.184;11.510;2022-08-25T06:06:47;95984.66;;;15.92;100.00
7662;BME280;30314;48.184;11.510;2022-08-25T06:09:18;96004.28;;;16.17;100.00
7662;BME280;30314;48.184;11.510;2022-08-25T06:11:46;95992.50;;;16.18;100.00
7662;BME280;30314;48.184;11.510;2022-08-25T06:14:20;95988.09;;;16.23;100.00
7662;BME280;30314;48.184;11.510;2022-08-25T06:16:48;95991.38;;;16.28;100.00
7662;BME280;30314;48.184;11.510;2022-08-25T06:19:18;95963.22;;;16.10;100.00
7662;BME280;30314;48.184;11.510;2022-08-25T06:21:46;95936.81;;;15.96;100.00
7662;BME280;30314;48.184;11.510;2022-08-25T06:24:14;95945.16;;;16.15;100.00
7662;BME280;30314;48.184;11.510;2022-08-25T06:26:42;95978.72;;;16.38;100.00
7662;BME280;30314;48.184;11.510;2022-08-25T06:29:10;95981.16;;;16.52;100.00
7662;BME280;30314;48.184;11.510;2022-08-25T06:31:39;95999.00;;;16.60;100.00
7662;BME280;30314;48.184;11.510;2022-08-25T06:34:08;95994.31;;;16.57;100.00
7662;BME280;30314;48.184;11.510;2022-08-25T06:36:37;95996.06;;;16.74;100.00
7662;BME280;30314;48.184;11.510;2022-08-25T06:39:04;95995.53;;;16.81;100.00
7662;BME280;30314;48.184;11.510;2022-08-25T06:41:34;95988.38;;;16.94;100.00
7662;BME280;30314;48.184;11.510;2022-08-25T06:44:02;95990.56;;;16.91;100.00
7662;BME280;30314;48.184;11.510;2022-08-25T06:46:31;96002.50;;;16.94;100.00
7662;BME280;30314;48.184;11.510;2022-08-25T06:49:03;95994.03;;;16.92;100.00
7662;BME280;30314;48.184;11.510;2022-08-25T06:51:31;95973.53;;;16.84;100.00
7662;BME280;30314;48.184;11.510;2022-08-25T06:54:01;95925.25;;;16.55;100.00
7662;BME280;30314;48.184;11.510;2022-08-25T06:56:29;96004.41;;;17.15;100.00
7662;BME280;30314;48.184;11.510;2022-08-25T06:58:56;95903.13;;;16.55;100.00
7662;BME280;30314;48.184;11.510;2022-08-25T07:01:25;96002.44;;;17.37;100.00
7662;BME280;30314;48.184;11.510;2022-08-25T07:03:54;96000.47;;;17.46;100.00
7662;BME280;30314;48.184;11.510;2022-08-25T07:06:23;96004.50;;;17.52;100.00
7662;BME280;30314;48.184;11.510;2022-08-25T07:08:52;96003.94;;;17.59;100.00
7662;BME280;30314;48.184;11.510;2022-08-25T07:11:22;95997.16;;;17.74;100.00
7662;BME280;30314;48.184;11.510;2022-08-25T07:13:49;96001.19;;;17.80;100.00
7662;BME280;30314;48.184;11.510;2022-08-25T07:16:18;95993.81;;;17.89;100.00
7662;BME280;30314;48.184;11.510;2022-08-25T07:18:47;95954.81;;;17.64;100.00
7662;BME280;30314;48.184;11.510;2022-08-25T07:21:15;96007.00;;;18.07;100.00
7662;BME280;30314;48.184;11.510;2022-08-25T07:23:48;96000.09;;;18.19;100.00
7662;BME280;30314;48.184;11.510;2022-08-25T07:26:18;96007.09;;;18.36;100.00
7662;BME280;30314;48.184;11.510;2022-08-25T07:29:12;95997.59;;;18.51;100.00
7662;BME280;30314;48.184;11.510;2022-08-25T07:31:40;95989.09;;;18.61;100.00
7662;BME280;30314;48.184;11.510;2022-08-25T07:34:08;95980.34;;;18.77;100.00
7662;BME280;30314;48.184;11.510;2022-08-25T07:36:55;95989.25;;;18.81;100.00
7662;BME280;30314;48.184;11.510;2022-08-25T07:39:24;95992.81;;;18.85;100.00
7662;BME280;30314;48.184;11.510;2022-08-25T07:41:54;95993.09;;;18.96;100.00
7662;BME280;30314;48.184;11.510;2022-08-25T07:44:24;95977.22;;;19.03;100.00
7662;BME280;30314;48.184;11.510;2022-08-25T07:46:54;95993.91;;;19.41;100.00
7662;BME280;30314;48.184;11.510;2022-08-25T07:49:24;95991.75;;;19.63;100.00
7662;BME280;30314;48.184;11.510;2022-08-25T07:52:01;95953.88;;;19.80;100.00
7662;BME280;30314;48.184;11.510;2022-08-25T07:54:32;95988.78;;;21.50;100.00
7662;BME280;30314;48.184;11.510;2022-08-25T07:57:04;95992.41;;;22.97;95.40
7662;BME280;30314;48.184;11.510;2022-08-25T07:59:34;95987.25;;;23.60;90.48
7662;BME280;30314;48.184;11.510;2022-08-25T08:02:07;95992.13;;;23.05;93.14
7662;BME280;30314;48.184;11.510;2022-08-25T08:04:45;96003.78;;;22.25;98.47
7662;BME280;30314;48.184;11.510;2022-08-25T08:07:15;95998.72;;;21.93;99.56
7662;BME280;30314;48.184;11.510;2022-08-25T08:09:44;96002.75;;;22.06;98.56
7662;BME280;30314;48.184;11.510;2022-08-25T08:12:16;96000.75;;;23.60;92.13
7662;BME280;30314;48.184;11.510;2022-08-25T08:14:45;96001.34;;;24.32;85.87
7662;BME280;30314;48.184;11.510;2022-08-25T08:17:13;95979.22;;;23.63;87.20
7662;BME280;30314;48.184;11.510;2022-08-25T08:19:42;95999.66;;;22.92;93.32
7662;BME280;30314;48.184;11.510;2022-08-25T08:22:12;96004.56;;;22.25;97.17
7662;BME280;30314;48.184;11.510;2022-08-25T08:24:42;96001.34;;;21.66;100.00
7662;BME280;30314;48.184;11.510;2022-08-25T08:27:22;96000.44;;;21.15;100.00
7662;BME280;30314;48.184;11.510;2022-08-25T08:29:52;95996.78;;;20.84;100.00
7662;BME280;30314;48.184;11.510;2022-08-25T08:32:20;95991.56;;;20.75;100.00
7662;BME280;30314;48.184;11.510;2022-08-25T08:35:08;95973.03;;;20.50;100.00
7662;BME280;30314;48.184;11.510;2022-08-25T08:37:36;95980.44;;;20.37;100.00
7662;BME280;30314;48.184;11.510;2022-08-25T08:40:09;95991.00;;;20.46;100.00
7662;BME280;30314;48.184;11.510;2022-08-25T08:42:45;95960.03;;;20.33;100.00
7662;BME280;30314;48.184;11.510;2022-08-25T08:45:23;95965.75;;;20.31;100.00
7662;BME280;30314;48.184;11.510;2022-08-25T08:50:53;95984.47;;;20.47;100.00
7662;BME280;30314;48.184;11.510;2022-08-25T08:53:26;95977.81;;;20.57;100.00
7662;BME280;30314;48.184;11.510;2022-08-25T08:56:01;95963.94;;;20.55;100.00
7662;BME280;30314;48.184;11.510;2022-08-25T08:58:39;95980.13;;;20.59;100.00
7662;BME280;30314;48.184;11.510;2022-08-25T09:01:12;95972.47;;;20.61;100.00
7662;BME280;30314;48.184;11.510;2022-08-25T09:03:46;95970.59;;;20.61;100.00
7662;BME280;30314;48.184;11.510;2022-08-25T09:06:24;95965.56;;;20.60;100.00
7662;BME280;30314;48.184;11.510;2022-08-25T09:08:58;95938.50;;;20.49;100.00
7662;BME280;30314;48.184;11.510;2022-08-25T09:11:44;95962.03;;;20.75;100.00
7662;BME280;30314;48.184;11.510;2022-08-25T09:14:30;95965.91;;;20.78;100.00
7662;BME280;30314;48.184;11.510;2022-08-25T09:17:07;95950.78;;;20.69;100.00
7662;BME280;30314;48.184;11.510;2022-08-25T09:19:57;95967.22;;;20.84;100.00
7662;BME280;30314;48.184;11.510;2022-08-25T09:22:40;95969.81;;;20.80;100.00
7662;BME280;30314;48.184;11.510;2022-08-25T09:25:18;95969.91;;;20.84;100.00
7662;BME280;30314;48.184;11.510;2022-08-25T09:28:14;95970.34;;;20.86;100.00
7662;BME280;30314;48.184;11.510;2022-08-25T09:30:52;95981.13;;;21.09;100.00
7662;BME280;30314;48.184;11.510;2022-08-25T09:33:24;95970.19;;;20.98;100.00
7662;BME280;30314;48.184;11.510;2022-08-25T09:35:53;95972.88;;;20.98;100.00
7662;BME280;30314;48.184;11.510;2022-08-25T09:38:24;95943.88;;;20.88;100.00
7662;BME280;30314;48.184;11.510;2022-08-25T09:40:54;95956.06;;;21.25;100.00
7662;BME280;30314;48.184;11.510;2022-08-25T09:43:29;95961.81;;;21.23;100.00
7662;BME280;30314;48.184;11.510;2022-08-25T09:46:01;95885.31;;;20.78;100.00
7662;BME280;30314;48.184;11.510;2022-08-25T09:48:32;95955.41;;;21.32;100.00
7662;BME280;30314;48.184;11.510;2022-08-25T09:51:15;95945.03;;;21.30;100.00
7662;BME280;30314;48.184;11.510;2022-08-25T09:53:49;95901.16;;;21.03;100.00
7662;BME280;30314;48.184;11.510;2022-08-25T09:56:19;95959.13;;;21.47;100.00
7662;BME280;30314;48.184;11.510;2022-08-25T09:58:47;95946.44;;;21.47;100.00
7662;BME280;30314;48.184;11.510;2022-08-25T10:01:17;95876.56;;;21.01;100.00
7662;BME280;30314;48.184;11.510;2022-08-25T10:03:58;95944.28;;;21.57;100.00
7662;BME280;30314;48.184;11.510;2022-08-25T10:06:29;95940.16;;;21.63;100.00
7662;BME280;30314;48.184;11.510;2022-08-25T10:09:00;95924.22;;;21.50;100.00
7662;BME280;30314;48.184;11.510;2022-08-25T10:11:41;95936.22;;;21.80;100.00
7662;BME280;30314;48.184;11.510;2022-08-25T10:14:19;95921.69;;;21.85;100.00
7662;BME280;30314;48.184;11.510;2022-08-25T10:16:48;95935.06;;;22.08;100.00
7662;BME280;30314;48.184;11.510;2022-08-25T10:19:25;95912.88;;;22.15;100.00
7662;BME280;30314;48.184;11.510;2022-08-25T10:22:07;95921.50;;;22.28;100.00
7662;BME280;30314;48.184;11.510;2022-08-25T10:24:37;95916.94;;;22.32;100.00
7662;BME280;30314;48.184;11.510;2022-08-25T10:27:18;95916.84;;;22.55;100.00
7662;BME280;30314;48.184;11.510;2022-08-25T10:30:13;95908.06;;;22.58;100.00
7662;BME280;30314;48.184;11.510;2022-08-25T10:33:05;95921.44;;;22.85;100.00
7662;BME280;30314;48.184;11.510;2022-08-25T10:35:47;95916.06;;;22.85;100.00
7662;BME280;30314;48.184;11.510;2022-08-25T10:38:32;95896.03;;;22.86;99.30
7662;BME280;30314;48.184;11.510;2022-08-25T10:41:11;95895.03;;;23.02;96.69
7662;BME280;30314;48.184;11.510;2022-08-25T10:43:46;95884.34;;;23.13;95.30
7662;BME280;30314;48.184;11.510;2022-08-25T10:46:25;95906.19;;;23.42;95.00
7662;BME280;30314;48.184;11.510;2022-08-25T10:49:03;95900.09;;;23.52;94.37
7662;BME280;30314;48.184;11.510;2022-08-25T10:51:43;95881.13;;;23.41;93.40
7662;BME280;30314;48.184;11.510;2022-08-25T10:54:25;95882.47;;;23.65;92.70
7662;BME280;30314;48.184;11.510;2022-08-25T10:57:01;95903.03;;;23.85;92.26
7662;BME280;30314;48.184;11.510;2022-08-25T10:59:49;95901.59;;;24.02;92.52
7662;BME280;30314;48.184;11.510;2022-08-25T11:02:43;95893.22;;;24.18;91.26
7662;BME280;30314;48.184;11.510;2022-08-25T11:05:22;95887.41;;;24.19;90.23
7662;BME280;30314;48.184;11.510;2022-08-25T11:07:58;95894.78;;;24.19;84.20
7662;BME280;30314;48.184;11.510;2022-08-25T11:10:37;95886.22;;;24.10;86.08
7662;BME280;30314;48.184;11.510;2022-08-25T11:13:10;95850.63;;;23.93;88.44
7662;BME280;30314;48.184;11.510;2022-08-25T11:15:49;95878.41;;;23.97;86.56
7662;BME280;30314;48.184;11.510;2022-08-25T11:18:45;95863.53;;;23.58;90.24
7662;BME280;30314;48.184;11.510;2022-08-25T11:21:19;95885.09;;;23.55;93.16
7662;BME280;30314;48.184;11.510;2022-08-25T11:23:55;95881.16;;;23.45;94.45
7662;BME280;30314;48.184;11.510;2022-08-25T11:26:27;95882.41;;;23.55;94.89
7662;BME280;30314;48.184;11.510;2022-08-25T11:29:05;95876.78;;;23.82;93.27
7662;BME280;30314;48.184;11.510;2022-08-25T11:31:39;95858.81;;;24.04;88.90
7662;BME280;30314;48.184;11.510;2022-08-25T11:34:10;95876.28;;;24.25;89.70
7662;BME280;30314;48.184;11.510;2022-08-25T11:36:49;95869.41;;;24.49;87.61
7662;BME280;30314;48.184;11.510;2022-08-25T11:39:33;95831.19;;;24.43;88.00
7662;BME280;30314;48.184;11.510;2022-08-25T11:42:15;95843.59;;;24.55;87.61
7662;BME280;30314;48.184;11.510;2022-08-25T11:44:53;95821.53;;;24.46;88.20
7662;BME280;30314;48.184;11.510;2022-08-25T11:47:38;95852.94;;;24.83;85.83
7662;BME280;30314;48.184;11.510;2022-08-25T11:50:24;95832.41;;;24.75;84.09
7662;BME280;30314;48.184;11.510;2022-08-25T11:52:56;95862.22;;;24.97;81.97
7662;BME280;30314;48.184;11.510;2022-08-25T11:55:45;95820.81;;;24.63;83.68
7662;BME280;30314;48.184;11.510;2022-08-25T11:58:22;95852.56;;;24.96;83.48
7662;BME280;30314;48.184;11.510;2022-08-25T12:00:57;95837.84;;;24.79;82.17
7662;BME280;30314;48.184;11.510;2022-08-25T12:03:49;95853.31;;;24.85;82.96
7662;BME280;30314;48.184;11.510;2022-08-25T12:06:22;95842.47;;;24.78;83.30
7662;BME280;30314;48.184;11.510;2022-08-25T12:11:45;95807.69;;;24.58;80.77
7662;BME280;30314;48.184;11.510;2022-08-25T12:14:17;95799.19;;;24.56;80.45
7662;BME280;30314;48.184;11.510;2022-08-25T12:17:06;95846.34;;;24.81;84.63
7662;BME280;30314;48.184;11.510;2022-08-25T12:19:57;95850.16;;;24.61;83.12
7662;BME280;30314;48.184;11.510;2022-08-25T12:22:40;95852.84;;;24.61;82.08
7662;BME280;30314;48.184;11.510;2022-08-25T12:25:34;95850.91;;;24.55;84.98
7662;BME280;30314;48.184;11.510;2022-08-25T12:28:21;95863.22;;;24.48;86.03
7662;BME280;30314;48.184;11.510;2022-08-25T12:31:05;95815.31;;;24.24;83.56
7662;BME280;30314;48.184;11.510;2022-08-25T12:33:47;95854.31;;;24.41;84.97
7662;BME280;30314;48.184;11.510;2022-08-25T12:36:27;95855.47;;;24.32;85.95
7662;BME280;30314;48.184;11.510;2022-08-25T12:39:13;95857.44;;;24.43;84.71
7662;BME280;30314;48.184;11.510;2022-08-25T12:41:55;95847.75;;;24.42;84.32
7662;BME280;30314;48.184;11.510;2022-08-25T12:44:40;95850.09;;;24.36;85.12
7662;BME280;30314;48.184;11.510;2022-08-25T12:50:27;95845.41;;;24.26;84.88
7662;BME280;30314;48.184;11.510;2022-08-25T12:53:07;95832.53;;;24.01;87.58
7662;BME280;30314;48.184;11.510;2022-08-25T12:55:37;95827.59;;;24.06;84.75
7662;BME280;30314;48.184;11.510;2022-08-25T12:58:07;95838.06;;;24.26;84.20
7662;BME280;30314;48.184;11.510;2022-08-25T13:00:53;95832.28;;;24.28;85.26
7662;BME280;30314;48.184;11.510;2022-08-25T13:06:56;95837.66;;;24.20;84.00
7662;BME280;30314;48.184;11.510;2022-08-25T13:09:49;95804.38;;;24.02;84.04
7662;BME280;30314;48.184;11.510;2022-08-25T13:12:32;95779.69;;;23.96;83.33
7662;BME280;30314;48.184;11.510;2022-08-25T13:15:03;95797.09;;;24.06;83.29
7662;BME280;30314;48.184;11.510;2022-08-25T13:17:34;95818.75;;;24.13;84.69
7662;BME280;30314;48.184;11.510;2022-08-25T13:20:18;95809.78;;;24.02;83.63
7662;BME280;30314;48.184;11.510;2022-08-25T13:22:47;95819.16;;;24.19;83.94
7662;BME280;30314;48.184;11.510;2022-08-25T13:25:25;95817.22;;;24.23;83.38
7662;BME280;30314;48.184;11.510;2022-08-25T13:28:00;95817.25;;;24.27;80.35
7662;BME280;30314;48.184;11.510;2022-08-25T13:30:31;95817.25;;;24.27;80.28
7662;BME280;30314;48.184;11.510;2022-08-25T13:33:15;95810.69;;;24.31;82.11